createdAt,value
2022-11-15T00:04:37.035Z,0.8
2022-11-15T00:09:35.143Z,0.8
2022-11-15T00:14:33.286Z,0.7
2022-11-15T00:19:31.264Z,0.7
2022-11-15T00:24:29.468Z,0.7
2022-11-15T00:29:27.590Z,0.7
2022-11-15T00:34:25.961Z,0.7
2022-11-15T00:39:23.912Z,0.7
2022-11-15T00:44:22.161Z,0.5
2022-11-15T00:49:20.328Z,0.6
2022-11-15T00:54:18.398Z,0.5
2022-11-15T00:59:16.476Z,0.3
2022-11-15T01:04:14.537Z,0.1
2022-11-15T01:09:12.712Z,0.2
2022-11-15T01:14:10.676Z,0.1
2022-11-15T01:19:08.899Z,0.1
2022-11-15T01:24:07.047Z,0
2022-11-15T01:29:05.026Z,-0.1
2022-11-15T01:34:03.217Z,-0.2
2022-11-15T01:39:01.320Z,-0.1
2022-11-15T01:43:59.489Z,-0.2
2022-11-15T01:48:57.661Z,-0.2
2022-11-15T01:53:55.737Z,-0.2
2022-11-15T01:58:53.916Z,-0.2
2022-11-15T02:03:51.983Z,-0.3
2022-11-15T02:08:50.131Z,-0.2
2022-11-15T02:13:48.318Z,-0.1
2022-11-15T02:18:46.314Z,-0.3
2022-11-15T02:23:44.425Z,-0.3
2022-11-15T02:28:42.545Z,-0.2
2022-11-15T02:33:40.729Z,-0.3
2022-11-15T02:38:38.841Z,-0.3
2022-11-15T02:43:37.022Z,-0.4
2022-11-15T02:48:35.212Z,-0.4
2022-11-15T02:53:33.940Z,-0.4
2022-11-15T02:58:32.343Z,-0.3
2022-11-15T03:03:30.951Z,-0.3
2022-11-15T03:08:29.153Z,-0.3
2022-11-15T03:13:27.466Z,-0.5
2022-11-15T03:18:25.613Z,-0.5
2022-11-15T03:23:23.769Z,-0.4
2022-11-15T03:28:22.041Z,-0.5
2022-11-15T03:33:20.034Z,-0.6
2022-11-15T03:38:18.219Z,-0.7
2022-11-15T03:43:16.405Z,-0.8
2022-11-15T03:48:14.488Z,-0.8
2022-11-15T03:53:12.393Z,-0.9
2022-11-15T03:58:10.615Z,-1
2022-11-15T04:03:08.595Z,-1
2022-11-15T04:08:06.655Z,-1.1
2022-11-15T04:13:04.933Z,-1.2
2022-11-15T04:18:03.074Z,-1.1
2022-11-15T04:23:00.984Z,-1.1
2022-11-15T04:27:59.212Z,-1.1
2022-11-15T04:32:57.500Z,-1.1
2022-11-15T04:37:55.985Z,-1
2022-11-15T04:42:55.510Z,-1.1
2022-11-15T04:47:52.187Z,-1.2
2022-11-15T04:52:50.241Z,-1.2
2022-11-15T04:57:48.642Z,-1.2
2022-11-15T05:02:46.722Z,-1.4
2022-11-15T05:07:45.254Z,-1.2
2022-11-15T05:12:43.351Z,-1.3
2022-11-15T05:17:41.537Z,-1.4
2022-11-15T05:22:39.888Z,-1.5
2022-11-15T05:27:37.945Z,-1.5
2022-11-15T05:32:36.191Z,-1.5
2022-11-15T05:37:34.382Z,-1.4
2022-11-15T05:42:32.741Z,-1
2022-11-15T05:47:31.216Z,-0.8
2022-11-15T05:52:29.662Z,-0.4
2022-11-15T05:57:28.344Z,0
2022-11-15T06:02:27.031Z,0
2022-11-15T06:07:25.738Z,0.4
2022-11-15T06:12:24.078Z,1
2022-11-15T06:17:22.768Z,1.6
2022-11-15T06:22:21.823Z,2.4
2022-11-15T06:27:20.483Z,2.9
2022-11-15T06:32:19.483Z,4.5
2022-11-15T06:37:21.745Z,7.7
2022-11-15T06:42:23.239Z,10.9
2022-11-15T06:47:24.417Z,13
2022-11-15T06:52:24.969Z,14.9
2022-11-15T06:57:25.155Z,16.8
2022-11-15T07:02:24.951Z,18.3
2022-11-15T07:07:24.718Z,19.2
2022-11-15T07:12:23.731Z,19.9
2022-11-15T07:17:22.898Z,21
2022-11-15T07:22:22.656Z,22
2022-11-15T07:27:21.711Z,22.5
2022-11-15T07:32:19.722Z,22
2022-11-15T07:37:19.037Z,23.2
2022-11-15T07:42:18.545Z,23.9
2022-11-15T07:47:17.878Z,23.7
2022-11-15T07:52:13.567Z,22.4
2022-11-15T07:57:13.299Z,23.9
2022-11-15T08:02:13.307Z,24.9
2022-11-15T08:07:12.333Z,25.9
2022-11-15T08:12:11.230Z,26.2
2022-11-15T08:17:10.042Z,26.8
2022-11-15T08:22:08.998Z,27.3
2022-11-15T08:27:07.966Z,27.8
2022-11-15T08:32:06.541Z,27.4
2022-11-15T08:37:04.562Z,27.4
2022-11-15T08:42:03.443Z,27.8
2022-11-15T08:47:02.062Z,28.4
2022-11-15T08:52:01.071Z,28.7
2022-11-15T08:56:59.598Z,28.6
2022-11-15T09:01:58.268Z,29.5
2022-11-15T09:06:56.930Z,29.8
2022-11-15T09:11:59.552Z,29.7
2022-11-15T09:16:53.166Z,29.9
2022-11-15T09:21:51.907Z,30.8
2022-11-15T09:26:49.916Z,30.8
2022-11-15T09:31:47.954Z,30.9
2022-11-15T09:36:45.985Z,31.4
2022-11-15T09:41:44.345Z,31.8
2022-11-15T09:46:42.684Z,31.9
2022-11-15T09:51:40.921Z,32
2022-11-15T09:56:38.986Z,32.2
2022-11-15T10:01:37.570Z,32.9
2022-11-15T10:06:35.888Z,33
2022-11-15T10:11:38.453Z,33
2022-11-15T10:16:32.467Z,33.3
2022-11-15T10:21:30.763Z,33.5
2022-11-15T10:26:28.658Z,33.7
2022-11-15T10:31:26.664Z,33.5
2022-11-15T10:36:24.359Z,32.7
2022-11-15T10:46:49.479Z,30.9
2022-11-15T10:51:25.746Z,30.7
2022-11-15T10:56:22.937Z,29.5
2022-11-15T11:01:19.502Z,27.8
2022-11-15T11:06:15.213Z,26.3
2022-11-15T11:11:12.188Z,25.4
2022-11-15T11:16:09.597Z,24.5
2022-11-15T11:21:07.544Z,23.9
2022-11-15T11:26:05.682Z,23.5
2022-11-15T11:31:03.022Z,22.8
2022-11-15T11:36:00.609Z,22
2022-11-15T11:40:58.104Z,21.6
2022-11-15T11:45:56.373Z,21.6
2022-11-15T11:50:54.436Z,21.6
2022-11-15T11:55:52.356Z,21.4
2022-11-15T12:00:50.474Z,21.8
2022-11-15T12:05:48.768Z,21.9
2022-11-15T12:10:46.941Z,21.7
2022-11-15T12:15:45.068Z,21.5
2022-11-15T12:20:42.995Z,21.4
2022-11-15T12:25:40.893Z,21.3
2022-11-15T12:30:39.065Z,21.2
2022-11-15T12:35:37.231Z,21.5
2022-11-15T12:40:35.661Z,21.4
2022-11-15T12:45:33.583Z,21.2
2022-11-15T12:50:31.455Z,20.9
2022-11-15T12:55:29.218Z,20.3
2022-11-15T13:00:26.670Z,19.2
2022-11-15T13:05:23.938Z,18.2
2022-11-15T13:10:25.196Z,17
2022-11-15T13:15:18.436Z,16
2022-11-15T13:20:15.927Z,15.3
2022-11-15T13:25:13.533Z,14.6
2022-11-15T13:30:11.400Z,14.1
2022-11-15T13:35:09.290Z,13.8
2022-11-15T13:40:07.272Z,13.5
2022-11-15T13:45:05.296Z,13.3
2022-11-15T13:50:04.436Z,12.7
2022-11-15T13:55:00.996Z,12.6
2022-11-15T13:59:59.038Z,12.3
2022-11-15T14:04:57.298Z,12.1
2022-11-15T14:09:55.238Z,11.8
2022-11-15T14:14:53.309Z,11.7
2022-11-15T14:19:51.472Z,11.8
2022-11-15T14:24:49.794Z,11.4
2022-11-15T14:29:47.722Z,11.2
2022-11-15T14:34:45.529Z,10.9
2022-11-15T14:39:43.350Z,10.5
2022-11-15T14:44:45.715Z,10.4
2022-11-15T14:49:39.444Z,10
2022-11-15T14:54:37.443Z,9.8
2022-11-15T14:59:35.514Z,9.6
2022-11-15T14:59:52.172Z,9.6
2022-11-15T15:04:47.368Z,9.7
2022-11-15T15:09:45.335Z,9.7
2022-11-15T15:14:43.871Z,10.1
2022-11-15T15:19:41.969Z,10.3
2022-11-15T15:24:40.393Z,10.3
2022-11-15T15:29:38.597Z,10.3
2022-11-15T15:34:37.039Z,10.2
2022-11-15T15:39:35.344Z,10.2
2022-11-15T15:44:33.369Z,9.9
2022-11-15T15:49:31.615Z,9.7
2022-11-15T15:54:29.573Z,9.5
2022-11-15T15:59:27.892Z,9.7
2022-11-15T16:04:26.229Z,9.4
2022-11-15T16:09:24.372Z,9.1
2022-11-15T16:14:22.380Z,9.1
2022-11-15T16:19:20.631Z,9.1
2022-11-15T16:24:18.622Z,9.1
2022-11-15T16:29:16.905Z,9
2022-11-15T16:34:14.921Z,8.7
2022-11-15T16:39:12.954Z,8.6
2022-11-15T16:44:10.980Z,8.4
2022-11-15T16:49:09.197Z,8.4
2022-11-15T16:54:07.409Z,8.3
2022-11-15T16:59:05.490Z,8.1
2022-11-15T17:04:03.473Z,7.9
2022-11-15T17:09:01.593Z,7.7
2022-11-15T17:13:59.666Z,7.5
2022-11-15T17:18:57.788Z,7.4
2022-11-15T17:23:55.892Z,7.2
2022-11-15T17:28:54.053Z,7
2022-11-15T17:33:52.073Z,6.7
2022-11-15T17:38:50.193Z,6.7
2022-11-15T17:43:48.558Z,6.7
2022-11-15T17:48:46.870Z,6.6
2022-11-15T17:53:45.383Z,6.4
2022-11-15T17:58:43.614Z,6.3
2022-11-15T18:03:41.631Z,6.2
2022-11-15T18:08:39.678Z,6.1
2022-11-15T18:13:38.075Z,6
2022-11-15T18:18:36.820Z,5.9
2022-11-15T18:23:35.377Z,5.8
2022-11-15T18:28:33.809Z,5.8
2022-11-15T18:33:32.251Z,5.7
2022-11-15T18:38:30.092Z,5.6
2022-11-15T18:43:28.482Z,5.5
2022-11-15T18:48:26.651Z,5.4
2022-11-15T18:53:25.019Z,5.5
2022-11-15T18:58:23.426Z,5.5
2022-11-15T19:03:23.657Z,5.6
2022-11-15T19:08:20.073Z,5.5
2022-11-15T19:13:18.737Z,5.4
2022-11-15T19:18:17.000Z,5.3
2022-11-15T19:23:15.361Z,5.3
2022-11-15T19:28:13.470Z,5.2
2022-11-15T19:33:11.686Z,5.2
2022-11-15T19:38:10.289Z,5.1
2022-11-15T19:43:08.580Z,5.2
2022-11-15T19:48:07.072Z,5.4
2022-11-15T19:53:05.573Z,5.7
2022-11-15T19:58:03.994Z,5.9
2022-11-15T20:03:02.425Z,6
2022-11-15T20:08:00.659Z,6.1
2022-11-15T20:12:58.719Z,6.2
2022-11-15T20:17:56.743Z,6.1
2022-11-15T20:22:54.871Z,6.1
2022-11-15T20:27:53.237Z,6.2
2022-11-15T20:32:51.463Z,6.2
2022-11-15T20:37:49.693Z,6.2
2022-11-15T20:42:47.836Z,6.1
2022-11-15T20:48:00.494Z,6.1
2022-11-15T20:52:56.241Z,6.3
2022-11-15T20:57:54.367Z,6.5
2022-11-15T21:02:52.774Z,6.5
2022-11-15T21:07:50.985Z,6.6
2022-11-15T21:12:49.250Z,6.7
2022-11-15T21:17:47.454Z,6.8
2022-11-15T21:22:45.575Z,6.8
2022-11-15T21:27:43.678Z,6.8
2022-11-15T21:32:41.795Z,6.8
2022-11-15T21:37:39.847Z,6.9
2022-11-15T21:42:38.217Z,6.9
2022-11-15T21:47:36.416Z,7
2022-11-15T21:52:34.609Z,7
2022-11-15T21:57:32.824Z,7
2022-11-15T22:02:31.089Z,6.8
2022-11-15T22:07:29.263Z,6.8
2022-11-15T22:12:29.768Z,6.7
2022-11-15T22:17:25.698Z,6.6
2022-11-15T22:22:23.845Z,6.5
2022-11-15T22:27:22.070Z,6.6
2022-11-15T22:32:20.267Z,6
2022-11-15T22:37:20.832Z,5.8
2022-11-15T22:42:20.803Z,5.5
2022-11-15T22:47:14.555Z,5.6
2022-11-15T22:52:12.756Z,5.4
2022-11-15T22:57:10.801Z,5.4
2022-11-15T23:02:09.097Z,5.4
2022-11-15T23:07:07.592Z,5.7
2022-11-15T23:12:06.361Z,6
2022-11-15T23:17:04.716Z,6.2
2022-11-15T23:22:03.192Z,6.4
2022-11-15T23:27:01.757Z,6.5
2022-11-15T23:32:02.247Z,6.6
2022-11-15T23:36:58.817Z,6.6
2022-11-15T23:41:57.147Z,6.6
2022-11-15T23:46:55.464Z,6.7
2022-11-15T23:51:53.835Z,6.8
2022-11-15T23:56:51.963Z,6.9
